sensor_id;sensor_type;location;lat;lon;timestamp;P1;durP1;ratioP1;P2;durP2;ratioP2
83214;SDS011;73102;46.294;18.206;2024-02-23T00:00:58;10.00;;;4.45;;
83214;SDS011;73102;46.294;18.206;2024-02-23T00:02:18;0.75;;;0.75;;
83214;SDS011;73102;46.294;18.206;2024-02-23T00:03:39;4.47;;;2.90;;
83214;SDS011;73102;46.294;18.206;2024-02-23T00:04:59;0.73;;;0.63;;
83214;SDS011;73102;46.294;18.206;2024-02-23T00:06:19;12.95;;;5.43;;
83214;SDS011;73102;46.294;18.206;2024-02-23T00:07:40;0.47;;;0.38;;
83214;SDS011;73102;46.294;18.206;2024-02-23T00:09:00;0.65;;;0.60;;
83214;SDS011;73102;46.294;18.206;2024-02-23T00:10:20;1.13;;;0.80;;
83214;SDS011;73102;46.294;18.206;2024-02-23T00:11:40;14.13;;;3.13;;
83214;SDS011;73102;46.294;18.206;2024-02-23T00:13:03;0.30;;;0.30;;
83214;SDS011;73102;46.294;18.206;2024-02-23T00:14:23;0.57;;;0.57;;
83214;SDS011;73102;46.294;18.206;2024-02-23T00:15:43;0.95;;;0.88;;
83214;SDS011;73102;46.294;18.206;2024-02-23T00:17:03;1.00;;;1.00;;
83214;SDS011;73102;46.294;18.206;2024-02-23T00:18:24;0.10;;;0.10;;
83214;SDS011;73102;46.294;18.206;2024-02-23T00:19:45;0.88;;;0.85;;
83214;SDS011;73102;46.294;18.206;2024-02-23T00:21:06;0.90;;;0.77;;
83214;SDS011;73102;46.294;18.206;2024-02-23T00:22:26;1.42;;;1.00;;
83214;SDS011;73102;46.294;18.206;2024-02-23T00:23:47;1.58;;;0.55;;
83214;SDS011;73102;46.294;18.206;2024-02-23T00:25:07;0.55;;;0.38;;
83214;SDS011;73102;46.294;18.206;2024-02-23T00:26:27;0.08;;;0.08;;
83214;SDS011;73102;46.294;18.206;2024-02-23T00:27:48;1.40;;;0.93;;
83214;SDS011;73102;46.294;18.206;2024-02-23T00:29:09;0.52;;;0.52;;
83214;SDS011;73102;46.294;18.206;2024-02-23T00:30:29;2.30;;;0.28;;
83214;SDS011;73102;46.294;18.206;2024-02-23T00:31:49;2.22;;;0.75;;
83214;SDS011;73102;46.294;18.206;2024-02-23T00:33:09;6.43;;;2.20;;
83214;SDS011;73102;46.294;18.206;2024-02-23T00:34:30;1.05;;;0.57;;
83214;SDS011;73102;46.294;18.206;2024-02-23T00:37:10;2.50;;;0.90;;
83214;SDS011;73102;46.294;18.206;2024-02-23T00:38:30;0.50;;;0.50;;
83214;SDS011;73102;46.294;18.206;2024-02-23T00:39:51;0.68;;;0.40;;
83214;SDS011;73102;46.294;18.206;2024-02-23T00:41:10;1.02;;;0.63;;
83214;SDS011;73102;46.294;18.206;2024-02-23T00:42:31;0.15;;;0.15;;
83214;SDS011;73102;46.294;18.206;2024-02-23T00:43:51;0.20;;;0.10;;
83214;SDS011;73102;46.294;18.206;2024-02-23T00:45:11;4.70;;;1.42;;
83214;SDS011;73102;46.294;18.206;2024-02-23T00:46:31;1.88;;;0.40;;
83214;SDS011;73102;46.294;18.206;2024-02-23T00:47:52;0.13;;;0.13;;
83214;SDS011;73102;46.294;18.206;2024-02-23T00:49:12;4.78;;;1.70;;
83214;SDS011;73102;46.294;18.206;2024-02-23T00:50:32;1.15;;;0.75;;
83214;SDS011;73102;46.294;18.206;2024-02-23T00:53:14;0.40;;;0.40;;
83214;SDS011;73102;46.294;18.206;2024-02-23T00:54:34;21.58;;;6.05;;
83214;SDS011;73102;46.294;18.206;2024-02-23T00:55:54;0.00;;;0.00;;
83214;SDS011;73102;46.294;18.206;2024-02-23T00:57:14;8.63;;;4.65;;
83214;SDS011;73102;46.294;18.206;2024-02-23T00:58:35;2.47;;;2.15;;
83214;SDS011;73102;46.294;18.206;2024-02-23T00:59:56;1.50;;;0.82;;
83214;SDS011;73102;46.294;18.206;2024-02-23T01:01:17;1.23;;;1.13;;
83214;SDS011;73102;46.294;18.206;2024-02-23T01:02:38;1.95;;;0.85;;
83214;SDS011;73102;46.294;18.206;2024-02-23T01:03:59;1.10;;;0.90;;
83214;SDS011;73102;46.294;18.206;2024-02-23T01:05:19;1.35;;;1.27;;
83214;SDS011;73102;46.294;18.206;2024-02-23T01:06:39;2.25;;;2.08;;
83214;SDS011;73102;46.294;18.206;2024-02-23T01:07:59;0.00;;;0.00;;
83214;SDS011;73102;46.294;18.206;2024-02-23T01:09:20;1.52;;;0.90;;
83214;SDS011;73102;46.294;18.206;2024-02-23T01:10:41;0.38;;;0.38;;
83214;SDS011;73102;46.294;18.206;2024-02-23T01:12:01;1.35;;;0.88;;
83214;SDS011;73102;46.294;18.206;2024-02-23T01:13:21;0.55;;;0.35;;
83214;SDS011;73102;46.294;18.206;2024-02-23T01:14:41;4.75;;;0.47;;
83214;SDS011;73102;46.294;18.206;2024-02-23T01:16:02;35.85;;;18.85;;
83214;SDS011;73102;46.294;18.206;2024-02-23T01:17:22;9.50;;;4.30;;
83214;SDS011;73102;46.294;18.206;2024-02-23T01:18:43;3.17;;;1.00;;
83214;SDS011;73102;46.294;18.206;2024-02-23T01:20:03;4.65;;;3.03;;
83214;SDS011;73102;46.294;18.206;2024-02-23T01:21:24;0.05;;;0.05;;
83214;SDS011;73102;46.294;18.206;2024-02-23T01:22:44;0.25;;;0.25;;
83214;SDS011;73102;46.294;18.206;2024-02-23T01:24:05;0.00;;;0.00;;
83214;SDS011;73102;46.294;18.206;2024-02-23T01:25:26;2.30;;;1.63;;
83214;SDS011;73102;46.294;18.206;2024-02-23T01:26:45;0.20;;;0.10;;
83214;SDS011;73102;46.294;18.206;2024-02-23T01:28:06;0.65;;;0.63;;
83214;SDS011;73102;46.294;18.206;2024-02-23T01:29:26;0.85;;;0.25;;
83214;SDS011;73102;46.294;18.206;2024-02-23T01:30:46;1.10;;;1.00;;
83214;SDS011;73102;46.294;18.206;2024-02-23T01:32:06;1.08;;;0.52;;
83214;SDS011;73102;46.294;18.206;2024-02-23T01:33:27;2.85;;;1.50;;
83214;SDS011;73102;46.294;18.206;2024-02-23T01:34:47;0.70;;;0.70;;
83214;SDS011;73102;46.294;18.206;2024-02-23T01:36:07;1.70;;;1.35;;
83214;SDS011;73102;46.294;18.206;2024-02-23T01:37:28;7.13;;;3.83;;
83214;SDS011;73102;46.294;18.206;2024-02-23T01:38:49;0.20;;;0.20;;
83214;SDS011;73102;46.294;18.206;2024-02-23T01:40:09;0.52;;;0.52;;
83214;SDS011;73102;46.294;18.206;2024-02-23T01:41:29;3.05;;;0.20;;
83214;SDS011;73102;46.294;18.206;2024-02-23T01:42:49;3.92;;;2.08;;
83214;SDS011;73102;46.294;18.206;2024-02-23T01:44:20;0.32;;;0.32;;
83214;SDS011;73102;46.294;18.206;2024-02-23T01:45:40;0.85;;;0.73;;
83214;SDS011;73102;46.294;18.206;2024-02-23T01:47:00;0.68;;;0.68;;
83214;SDS011;73102;46.294;18.206;2024-02-23T01:48:21;0.80;;;0.80;;
83214;SDS011;73102;46.294;18.206;2024-02-23T01:49:41;0.93;;;0.20;;
83214;SDS011;73102;46.294;18.206;2024-02-23T01:51:01;0.30;;;0.30;;
83214;SDS011;73102;46.294;18.206;2024-02-23T01:52:22;1.65;;;0.47;;
83214;SDS011;73102;46.294;18.206;2024-02-23T01:53:42;0.30;;;0.30;;
83214;SDS011;73102;46.294;18.206;2024-02-23T01:55:03;1.10;;;0.28;;
83214;SDS011;73102;46.294;18.206;2024-02-23T01:56:23;0.20;;;0.20;;
83214;SDS011;73102;46.294;18.206;2024-02-23T01:57:44;2.75;;;2.55;;
83214;SDS011;73102;46.294;18.206;2024-02-23T01:59:04;0.13;;;0.13;;
83214;SDS011;73102;46.294;18.206;2024-02-23T02:00:26;1.92;;;1.00;;
83214;SDS011;73102;46.294;18.206;2024-02-23T02:01:47;2.30;;;1.52;;
83214;SDS011;73102;46.294;18.206;2024-02-23T02:03:08;0.45;;;0.38;;
83214;SDS011;73102;46.294;18.206;2024-02-23T02:04:28;3.58;;;1.13;;
83214;SDS011;73102;46.294;18.206;2024-02-23T02:05:49;0.00;;;0.00;;
83214;SDS011;73102;46.294;18.206;2024-02-23T02:07:10;2.50;;;1.27;;
83214;SDS011;73102;46.294;18.206;2024-02-23T02:08:30;6.30;;;0.85;;
83214;SDS011;73102;46.294;18.206;2024-02-23T02:09:50;1.92;;;1.45;;
83214;SDS011;73102;46.294;18.206;2024-02-23T02:11:11;0.20;;;0.20;;
83214;SDS011;73102;46.294;18.206;2024-02-23T02:12:31;0.00;;;0.00;;
83214;SDS011;73102;46.294;18.206;2024-02-23T02:13:51;0.20;;;0.15;;
83214;SDS011;73102;46.294;18.206;2024-02-23T02:15:11;1.20;;;0.80;;
83214;SDS011;73102;46.294;18.206;2024-02-23T02:16:31;0.13;;;0.13;;
83214;SDS011;73102;46.294;18.206;2024-02-23T02:17:51;0.70;;;0.70;;
83214;SDS011;73102;46.294;18.206;2024-02-23T02:19:12;0.60;;;0.57;;
83214;SDS011;73102;46.294;18.206;2024-02-23T02:20:33;0.88;;;0.75;;
83214;SDS011;73102;46.294;18.206;2024-02-23T02:21:53;0.20;;;0.20;;
83214;SDS011;73102;46.294;18.206;2024-02-23T02:23:13;0.10;;;0.10;;
83214;SDS011;73102;46.294;18.206;2024-02-23T02:24:33;0.55;;;0.55;;
83214;SDS011;73102;46.294;18.206;2024-02-23T02:25:54;0.77;;;0.75;;
83214;SDS011;73102;46.294;18.206;2024-02-23T02:28:34;1.08;;;0.98;;
83214;SDS011;73102;46.294;18.206;2024-02-23T02:29:55;1.05;;;0.85;;
83214;SDS011;73102;46.294;18.206;2024-02-23T02:31:15;2.38;;;0.95;;
83214;SDS011;73102;46.294;18.206;2024-02-23T02:32:35;0.50;;;0.30;;
83214;SDS011;73102;46.294;18.206;2024-02-23T02:33:56;1.67;;;0.85;;
83214;SDS011;73102;46.294;18.206;2024-02-23T02:35:16;0.00;;;0.00;;
83214;SDS011;73102;46.294;18.206;2024-02-23T02:36:36;0.65;;;0.28;;
83214;SDS011;73102;46.294;18.206;2024-02-23T02:37:56;0.13;;;0.13;;
83214;SDS011;73102;46.294;18.206;2024-02-23T02:39:16;1.65;;;1.13;;
83214;SDS011;73102;46.294;18.206;2024-02-23T02:40:36;0.45;;;0.25;;
83214;SDS011;73102;46.294;18.206;2024-02-23T02:41:57;7.03;;;3.20;;
83214;SDS011;73102;46.294;18.206;2024-02-23T02:43:17;0.00;;;0.00;;
83214;SDS011;73102;46.294;18.206;2024-02-23T02:44:37;0.50;;;0.50;;
83214;SDS011;73102;46.294;18.206;2024-02-23T02:45:58;4.95;;;1.27;;
83214;SDS011;73102;46.294;18.206;2024-02-23T02:47:18;0.65;;;0.38;;
83214;SDS011;73102;46.294;18.206;2024-02-23T02:48:39;0.32;;;0.22;;
83214;SDS011;73102;46.294;18.206;2024-02-23T02:49:58;0.30;;;0.30;;
83214;SDS011;73102;46.294;18.206;2024-02-23T02:51:19;0.20;;;0.20;;
83214;SDS011;73102;46.294;18.206;2024-02-23T02:54:00;0.25;;;0.25;;
83214;SDS011;73102;46.294;18.206;2024-02-23T02:55:20;1.05;;;0.95;;
83214;SDS011;73102;46.294;18.206;2024-02-23T02:56:43;2.25;;;1.52;;
83214;SDS011;73102;46.294;18.206;2024-02-23T02:58:05;1.30;;;0.73;;
83214;SDS011;73102;46.294;18.206;2024-02-23T02:59:25;0.98;;;0.80;;
83214;SDS011;73102;46.294;18.206;2024-02-23T03:00:45;6.60;;;1.10;;
83214;SDS011;73102;46.294;18.206;2024-02-23T03:02:05;0.80;;;0.80;;
83214;SDS011;73102;46.294;18.206;2024-02-23T03:03:25;0.20;;;0.20;;
83214;SDS011;73102;46.294;18.206;2024-02-23T03:04:46;0.10;;;0.10;;
83214;SDS011;73102;46.294;18.206;2024-02-23T03:06:06;2.83;;;0.13;;
83214;SDS011;73102;46.294;18.206;2024-02-23T03:07:27;0.10;;;0.10;;
83214;SDS011;73102;46.294;18.206;2024-02-23T03:08:47;1.85;;;0.50;;
83214;SDS011;73102;46.294;18.206;2024-02-23T03:10:07;1.95;;;1.80;;
83214;SDS011;73102;46.294;18.206;2024-02-23T03:11:27;1.33;;;0.22;;
83214;SDS011;73102;46.294;18.206;2024-02-23T03:12:48;0.93;;;0.63;;
83214;SDS011;73102;46.294;18.206;2024-02-23T03:14:07;0.10;;;0.10;;
83214;SDS011;73102;46.294;18.206;2024-02-23T03:15:29;0.75;;;0.73;;
83214;SDS011;73102;46.294;18.206;2024-02-23T03:16:49;1.67;;;0.75;;
83214;SDS011;73102;46.294;18.206;2024-02-23T03:18:09;1.35;;;1.00;;
83214;SDS011;73102;46.294;18.206;2024-02-23T03:19:30;0.52;;;0.43;;
83214;SDS011;73102;46.294;18.206;2024-02-23T03:20:51;0.17;;;0.17;;
83214;SDS011;73102;46.294;18.206;2024-02-23T03:22:11;0.10;;;0.10;;
83214;SDS011;73102;46.294;18.206;2024-02-23T03:23:32;0.10;;;0.10;;
83214;SDS011;73102;46.294;18.206;2024-02-23T03:24:52;1.40;;;1.05;;
83214;SDS011;73102;46.294;18.206;2024-02-23T03:26:12;0.15;;;0.10;;
83214;SDS011;73102;46.294;18.206;2024-02-23T03:27:36;1.58;;;0.85;;
83214;SDS011;73102;46.294;18.206;2024-02-23T03:28:56;0.65;;;0.63;;
83214;SDS011;73102;46.294;18.206;2024-02-23T03:30:16;0.45;;;0.38;;
83214;SDS011;73102;46.294;18.206;2024-02-23T03:31:37;0.20;;;0.20;;
83214;SDS011;73102;46.294;18.206;2024-02-23T03:32:57;1.63;;;0.77;;
83214;SDS011;73102;46.294;18.206;2024-02-23T03:34:19;0.68;;;0.68;;
83214;SDS011;73102;46.294;18.206;2024-02-23T03:35:39;0.25;;;0.25;;
83214;SDS011;73102;46.294;18.206;2024-02-23T03:36:59;1.17;;;0.57;;
83214;SDS011;73102;46.294;18.206;2024-02-23T03:38:21;0.77;;;0.77;;
83214;SDS011;73102;46.294;18.206;2024-02-23T03:39:41;0.75;;;0.75;;
83214;SDS011;73102;46.294;18.206;2024-02-23T03:41:01;1.27;;;0.93;;
83214;SDS011;73102;46.294;18.206;2024-02-23T03:42:22;1.10;;;1.10;;
83214;SDS011;73102;46.294;18.206;2024-02-23T03:43:42;1.10;;;0.32;;
83214;SDS011;73102;46.294;18.206;2024-02-23T03:45:03;0.57;;;0.57;;
83214;SDS011;73102;46.294;18.206;2024-02-23T03:47:44;0.00;;;0.00;;
83214;SDS011;73102;46.294;18.206;2024-02-23T03:49:04;0.20;;;0.20;;
83214;SDS011;73102;46.294;18.206;2024-02-23T03:50:24;0.13;;;0.13;;
83214;SDS011;73102;46.294;18.206;2024-02-23T03:51:44;1.70;;;1.38;;
83214;SDS011;73102;46.294;18.206;2024-02-23T03:53:05;0.10;;;0.10;;
83214;SDS011;73102;46.294;18.206;2024-02-23T03:54:25;0.75;;;0.40;;
83214;SDS011;73102;46.294;18.206;2024-02-23T03:55:45;2.33;;;1.10;;
83214;SDS011;73102;46.294;18.206;2024-02-23T03:57:06;0.75;;;0.13;;
83214;SDS011;73102;46.294;18.206;2024-02-23T03:58:26;0.85;;;0.35;;
83214;SDS011;73102;46.294;18.206;2024-02-23T03:59:52;4.78;;;1.48;;
83214;SDS011;73102;46.294;18.206;2024-02-23T04:01:13;4.38;;;0.50;;
83214;SDS011;73102;46.294;18.206;2024-02-23T04:02:33;4.28;;;3.30;;
83214;SDS011;73102;46.294;18.206;2024-02-23T04:03:54;2.00;;;1.83;;
83214;SDS011;73102;46.294;18.206;2024-02-23T04:05:13;0.28;;;0.28;;
83214;SDS011;73102;46.294;18.206;2024-02-23T04:06:34;0.55;;;0.50;;
83214;SDS011;73102;46.294;18.206;2024-02-23T04:07:54;3.30;;;0.85;;
83214;SDS011;73102;46.294;18.206;2024-02-23T04:09:15;6.43;;;2.63;;
83214;SDS011;73102;46.294;18.206;2024-02-23T04:10:35;1.30;;;0.10;;
83214;SDS011;73102;46.294;18.206;2024-02-23T04:11:55;2.50;;;1.63;;
83214;SDS011;73102;46.294;18.206;2024-02-23T04:13:15;0.75;;;0.47;;
83214;SDS011;73102;46.294;18.206;2024-02-23T04:14:36;0.00;;;0.00;;
83214;SDS011;73102;46.294;18.206;2024-02-23T04:15:56;0.00;;;0.00;;
83214;SDS011;73102;46.294;18.206;2024-02-23T04:17:16;0.00;;;0.00;;
83214;SDS011;73102;46.294;18.206;2024-02-23T04:19:58;4.50;;;1.42;;
83214;SDS011;73102;46.294;18.206;2024-02-23T04:21:20;0.80;;;0.73;;
83214;SDS011;73102;46.294;18.206;2024-02-23T04:22:40;1.42;;;0.75;;
83214;SDS011;73102;46.294;18.206;2024-02-23T04:24:01;0.85;;;0.85;;
83214;SDS011;73102;46.294;18.206;2024-02-23T04:25:21;0.20;;;0.20;;
83214;SDS011;73102;46.294;18.206;2024-02-23T04:26:41;0.57;;;0.57;;
83214;SDS011;73102;46.294;18.206;2024-02-23T04:28:01;1.40;;;1.30;;
83214;SDS011;73102;46.294;18.206;2024-02-23T04:29:22;0.55;;;0.20;;
83214;SDS011;73102;46.294;18.206;2024-02-23T04:30:42;0.00;;;0.00;;
83214;SDS011;73102;46.294;18.206;2024-02-23T04:32:02;0.70;;;0.70;;
83214;SDS011;73102;46.294;18.206;2024-02-23T04:33:23;0.50;;;0.50;;
83214;SDS011;73102;46.294;18.206;2024-02-23T04:34:43;0.30;;;0.30;;
83214;SDS011;73102;46.294;18.206;2024-02-23T04:36:03;3.40;;;1.02;;
83214;SDS011;73102;46.294;18.206;2024-02-23T04:38:44;4.80;;;1.08;;
83214;SDS011;73102;46.294;18.206;2024-02-23T04:40:04;2.10;;;0.88;;
83214;SDS011;73102;46.294;18.206;2024-02-23T04:41:25;5.43;;;1.60;;
83214;SDS011;73102;46.294;18.206;2024-02-23T04:42:45;0.15;;;0.15;;
83214;SDS011;73102;46.294;18.206;2024-02-23T04:44:06;1.15;;;1.15;;
83214;SDS011;73102;46.294;18.206;2024-02-23T04:45:27;0.00;;;0.00;;
83214;SDS011;73102;46.294;18.206;2024-02-23T04:46:47;2.72;;;1.05;;
83214;SDS011;73102;46.294;18.206;2024-02-23T04:48:08;6.78;;;2.17;;
83214;SDS011;73102;46.294;18.206;2024-02-23T04:49:28;0.28;;;0.28;;
83214;SDS011;73102;46.294;18.206;2024-02-23T04:50:48;6.28;;;3.08;;
83214;SDS011;73102;46.294;18.206;2024-02-23T04:52:09;0.52;;;0.52;;
83214;SDS011;73102;46.294;18.206;2024-02-23T04:53:29;1.08;;;0.95;;
83214;SDS011;73102;46.294;18.206;2024-02-23T04:54:50;1.35;;;0.90;;
83214;SDS011;73102;46.294;18.206;2024-02-23T04:56:10;0.77;;;0.77;;
83214;SDS011;73102;46.294;18.206;2024-02-23T04:57:31;0.55;;;0.40;;
83214;SDS011;73102;46.294;18.206;2024-02-23T04:58:51;0.00;;;0.00;;
83214;SDS011;73102;46.294;18.206;2024-02-23T05:00:11;0.82;;;0.30;;
83214;SDS011;73102;46.294;18.206;2024-02-23T05:01:34;0.47;;;0.25;;
83214;SDS011;73102;46.294;18.206;2024-02-23T05:02:55;0.35;;;0.35;;
83214;SDS011;73102;46.294;18.206;2024-02-23T05:04:16;1.00;;;0.20;;
83214;SDS011;73102;46.294;18.206;2024-02-23T05:05:36;0.30;;;0.30;;
83214;SDS011;73102;46.294;18.206;2024-02-23T05:06:56;0.00;;;0.00;;
83214;SDS011;73102;46.294;18.206;2024-02-23T05:08:16;0.68;;;0.68;;
83214;SDS011;73102;46.294;18.206;2024-02-23T05:09:37;0.35;;;0.30;;
83214;SDS011;73102;46.294;18.206;2024-02-23T05:12:18;0.20;;;0.20;;
83214;SDS011;73102;46.294;18.206;2024-02-23T05:13:38;0.30;;;0.28;;
83214;SDS011;73102;46.294;18.206;2024-02-23T05:15:00;1.15;;;1.05;;
83214;SDS011;73102;46.294;18.206;2024-02-23T05:16:22;0.80;;;0.20;;
83214;SDS011;73102;46.294;18.206;2024-02-23T05:17:42;6.32;;;2.30;;
83214;SDS011;73102;46.294;18.206;2024-02-23T05:19:02;3.50;;;0.77;;
83214;SDS011;73102;46.294;18.206;2024-02-23T05:20:22;0.00;;;0.00;;
83214;SDS011;73102;46.294;18.206;2024-02-23T05:21:42;0.03;;;0.03;;
83214;SDS011;73102;46.294;18.206;2024-02-23T05:23:02;5.65;;;4.25;;
83214;SDS011;73102;46.294;18.206;2024-02-23T05:24:23;3.85;;;3.50;;
83214;SDS011;73102;46.294;18.206;2024-02-23T05:25:42;12.32;;;10.38;;
83214;SDS011;73102;46.294;18.206;2024-02-23T05:27:03;8.55;;;7.10;;
83214;SDS011;73102;46.294;18.206;2024-02-23T05:28:23;5.63;;;2.65;;
83214;SDS011;73102;46.294;18.206;2024-02-23T05:29:44;74.65;;;38.78;;
83214;SDS011;73102;46.294;18.206;2024-02-23T05:31:04;37.53;;;23.85;;
83214;SDS011;73102;46.294;18.206;2024-02-23T05:32:24;12.40;;;11.38;;
83214;SDS011;73102;46.294;18.206;2024-02-23T05:33:44;18.42;;;11.13;;
83214;SDS011;73102;46.294;18.206;2024-02-23T05:35:05;62.63;;;24.20;;
83214;SDS011;73102;46.294;18.206;2024-02-23T05:36:25;45.50;;;16.55;;
83214;SDS011;73102;46.294;18.206;2024-02-23T05:37:45;61.97;;;22.38;;
83214;SDS011;73102;46.294;18.206;2024-02-23T05:39:05;42.13;;;31.90;;
83214;SDS011;73102;46.294;18.206;2024-02-23T05:40:26;31.77;;;20.75;;
83214;SDS011;73102;46.294;18.206;2024-02-23T05:41:47;7.00;;;6.28;;
83214;SDS011;73102;46.294;18.206;2024-02-23T05:43:07;6.60;;;6.10;;
83214;SDS011;73102;46.294;18.206;2024-02-23T05:44:27;5.15;;;2.78;;
83214;SDS011;73102;46.294;18.206;2024-02-23T05:45:47;5.20;;;3.38;;
83214;SDS011;73102;46.294;18.206;2024-02-23T05:47:08;4.15;;;3.75;;
83214;SDS011;73102;46.294;18.206;2024-02-23T05:48:29;4.95;;;4.45;;
83214;SDS011;73102;46.294;18.206;2024-02-23T05:49:49;0.22;;;0.17;;
83214;SDS011;73102;46.294;18.206;2024-02-23T05:51:10;2.13;;;1.75;;
83214;SDS011;73102;46.294;18.206;2024-02-23T05:52:33;7.43;;;4.32;;
83214;SDS011;73102;46.294;18.206;2024-02-23T05:53:53;0.10;;;0.10;;
83214;SDS011;73102;46.294;18.206;2024-02-23T05:55:13;0.80;;;0.75;;
83214;SDS011;73102;46.294;18.206;2024-02-23T05:56:34;0.30;;;0.30;;
83214;SDS011;73102;46.294;18.206;2024-02-23T05:57:54;10.65;;;6.53;;
83214;SDS011;73102;46.294;18.206;2024-02-23T06:00:35;0.80;;;0.30;;
83214;SDS011;73102;46.294;18.206;2024-02-23T06:01:55;2.10;;;0.88;;
83214;SDS011;73102;46.294;18.206;2024-02-23T06:03:16;0.35;;;0.32;;
83214;SDS011;73102;46.294;18.206;2024-02-23T06:04:37;0.32;;;0.32;;
83214;SDS011;73102;46.294;18.206;2024-02-23T06:05:57;1.98;;;1.55;;
83214;SDS011;73102;46.294;18.206;2024-02-23T06:07:18;1.88;;;1.35;;
83214;SDS011;73102;46.294;18.206;2024-02-23T06:08:41;2.65;;;1.45;;
83214;SDS011;73102;46.294;18.206;2024-02-23T06:10:01;0.38;;;0.20;;
83214;SDS011;73102;46.294;18.206;2024-02-23T06:11:21;1.65;;;0.95;;
83214;SDS011;73102;46.294;18.206;2024-02-23T06:12:41;3.10;;;2.22;;
83214;SDS011;73102;46.294;18.206;2024-02-23T06:14:02;1.48;;;1.38;;
83214;SDS011;73102;46.294;18.206;2024-02-23T06:15:22;0.43;;;0.43;;
83214;SDS011;73102;46.294;18.206;2024-02-23T06:16:42;0.15;;;0.15;;
83214;SDS011;73102;46.294;18.206;2024-02-23T06:18:02;0.25;;;0.25;;
83214;SDS011;73102;46.294;18.206;2024-02-23T06:19:23;1.60;;;1.23;;
83214;SDS011;73102;46.294;18.206;2024-02-23T06:20:43;0.30;;;0.20;;
83214;SDS011;73102;46.294;18.206;2024-02-23T06:22:03;1.95;;;1.52;;
83214;SDS011;73102;46.294;18.206;2024-02-23T06:23:24;0.22;;;0.22;;
83214;SDS011;73102;46.294;18.206;2024-02-23T06:24:44;3.33;;;2.42;;
83214;SDS011;73102;46.294;18.206;2024-02-23T06:26:04;0.00;;;0.00;;
83214;SDS011;73102;46.294;18.206;2024-02-23T06:27:24;1.73;;;1.60;;
83214;SDS011;73102;46.294;18.206;2024-02-23T06:28:46;5.07;;;2.67;;
83214;SDS011;73102;46.294;18.206;2024-02-23T06:30:08;40.58;;;16.10;;
83214;SDS011;73102;46.294;18.206;2024-02-23T06:31:30;8.57;;;4.10;;
83214;SDS011;73102;46.294;18.206;2024-02-23T06:32:50;14.85;;;7.15;;
83214;SDS011;73102;46.294;18.206;2024-02-23T06:34:10;5.65;;;2.90;;
83214;SDS011;73102;46.294;18.206;2024-02-23T06:35:30;2.90;;;1.77;;
83214;SDS011;73102;46.294;18.206;2024-02-23T06:36:51;0.60;;;0.30;;
83214;SDS011;73102;46.294;18.206;2024-02-23T06:38:10;0.52;;;0.52;;
83214;SDS011;73102;46.294;18.206;2024-02-23T06:39:31;4.10;;;3.38;;
83214;SDS011;73102;46.294;18.206;2024-02-23T06:40:51;2.92;;;1.42;;
83214;SDS011;73102;46.294;18.206;2024-02-23T06:42:11;1.98;;;0.55;;
83214;SDS011;73102;46.294;18.206;2024-02-23T06:43:31;0.80;;;0.60;;
83214;SDS011;73102;46.294;18.206;2024-02-23T06:44:52;3.97;;;3.05;;
83214;SDS011;73102;46.294;18.206;2024-02-23T06:46:13;6.50;;;0.80;;
83214;SDS011;73102;46.294;18.206;2024-02-23T06:47:33;0.35;;;0.35;;
83214;SDS011;73102;46.294;18.206;2024-02-23T06:48:53;0.65;;;0.40;;
83214;SDS011;73102;46.294;18.206;2024-02-23T06:50:14;0.88;;;0.70;;
83214;SDS011;73102;46.294;18.206;2024-02-23T06:51:34;1.13;;;0.70;;
83214;SDS011;73102;46.294;18.206;2024-02-23T06:52:54;1.27;;;0.77;;
83214;SDS011;73102;46.294;18.206;2024-02-23T06:54:14;0.57;;;0.57;;
83214;SDS011;73102;46.294;18.206;2024-02-23T06:56:55;0.00;;;0.00;;
83214;SDS011;73102;46.294;18.206;2024-02-23T06:58:15;0.73;;;0.65;;
83214;SDS011;73102;46.294;18.206;2024-02-23T06:59:37;2.03;;;1.30;;
83214;SDS011;73102;46.294;18.206;2024-02-23T07:00:57;0.00;;;0.00;;
83214;SDS011;73102;46.294;18.206;2024-02-23T07:02:17;1.35;;;0.75;;
83214;SDS011;73102;46.294;18.206;2024-02-23T07:03:38;0.00;;;0.00;;
83214;SDS011;73102;46.294;18.206;2024-02-23T07:05:00;0.73;;;0.73;;
83214;SDS011;73102;46.294;18.206;2024-02-23T07:06:23;0.00;;;0.00;;
83214;SDS011;73102;46.294;18.206;2024-02-23T07:07:42;0.00;;;0.00;;
83214;SDS011;73102;46.294;18.206;2024-02-23T07:09:03;0.40;;;0.40;;
83214;SDS011;73102;46.294;18.206;2024-02-23T07:10:23;1.60;;;1.33;;
83214;SDS011;73102;46.294;18.206;2024-02-23T07:11:44;0.00;;;0.00;;
83214;SDS011;73102;46.294;18.206;2024-02-23T07:13:04;0.08;;;0.08;;
83214;SDS011;73102;46.294;18.206;2024-02-23T07:14:26;0.60;;;0.40;;
83214;SDS011;73102;46.294;18.206;2024-02-23T07:15:46;0.05;;;0.03;;
83214;SDS011;73102;46.294;18.206;2024-02-23T07:17:06;2.45;;;0.65;;
83214;SDS011;73102;46.294;18.206;2024-02-23T07:19:47;0.00;;;0.00;;
83214;SDS011;73102;46.294;18.206;2024-02-23T07:21:09;0.00;;;0.00;;
83214;SDS011;73102;46.294;18.206;2024-02-23T07:22:30;3.20;;;0.85;;
83214;SDS011;73102;46.294;18.206;2024-02-23T07:23:50;0.10;;;0.10;;
83214;SDS011;73102;46.294;18.206;2024-02-23T07:25:10;0.20;;;0.20;;
83214;SDS011;73102;46.294;18.206;2024-02-23T07:26:30;0.00;;;0.00;;
83214;SDS011;73102;46.294;18.206;2024-02-23T07:27:50;1.55;;;0.40;;
83214;SDS011;73102;46.294;18.206;2024-02-23T07:29:10;0.00;;;0.00;;
83214;SDS011;73102;46.294;18.206;2024-02-23T07:30:31;0.70;;;0.68;;
83214;SDS011;73102;46.294;18.206;2024-02-23T07:31:51;0.20;;;0.17;;
83214;SDS011;73102;46.294;18.206;2024-02-23T07:33:11;0.00;;;0.00;;
83214;SDS011;73102;46.294;18.206;2024-02-23T07:34:31;0.00;;;0.00;;
83214;SDS011;73102;46.294;18.206;2024-02-23T07:35:51;1.08;;;0.80;;
83214;SDS011;73102;46.294;18.206;2024-02-23T07:37:11;0.17;;;0.17;;
83214;SDS011;73102;46.294;18.206;2024-02-23T07:38:32;0.00;;;0.00;;
83214;SDS011;73102;46.294;18.206;2024-02-23T07:39:52;0.05;;;0.05;;
83214;SDS011;73102;46.294;18.206;2024-02-23T07:41:12;0.00;;;0.00;;
83214;SDS011;73102;46.294;18.206;2024-02-23T07:42:32;0.00;;;0.00;;
83214;SDS011;73102;46.294;18.206;2024-02-23T07:43:54;0.38;;;0.38;;
83214;SDS011;73102;46.294;18.206;2024-02-23T07:45:14;0.68;;;0.65;;
83214;SDS011;73102;46.294;18.206;2024-02-23T07:46:35;0.00;;;0.00;;
83214;SDS011;73102;46.294;18.206;2024-02-23T07:49:15;2.15;;;1.95;;
83214;SDS011;73102;46.294;18.206;2024-02-23T07:50:35;4.45;;;1.67;;
83214;SDS011;73102;46.294;18.206;2024-02-23T07:51:56;4.80;;;2.25;;
83214;SDS011;73102;46.294;18.206;2024-02-23T07:53:16;1.38;;;1.08;;
83214;SDS011;73102;46.294;18.206;2024-02-23T07:54:36;0.30;;;0.20;;
83214;SDS011;73102;46.294;18.206;2024-02-23T07:55:56;0.00;;;0.00;;
83214;SDS011;73102;46.294;18.206;2024-02-23T07:57:19;0.00;;;0.00;;
83214;SDS011;73102;46.294;18.206;2024-02-23T07:58:39;0.00;;;0.00;;
83214;SDS011;73102;46.294;18.206;2024-02-23T08:00:00;0.75;;;0.20;;
83214;SDS011;73102;46.294;18.206;2024-02-23T08:01:20;0.00;;;0.00;;
83214;SDS011;73102;46.294;18.206;2024-02-23T08:02:40;0.50;;;0.50;;
83214;SDS011;73102;46.294;18.206;2024-02-23T08:04:00;0.00;;;0.00;;
83214;SDS011;73102;46.294;18.206;2024-02-23T08:05:22;0.10;;;0.10;;
83214;SDS011;73102;46.294;18.206;2024-02-23T08:06:42;25.17;;;6.32;;
83214;SDS011;73102;46.294;18.206;2024-02-23T08:08:03;2.13;;;1.50;;
83214;SDS011;73102;46.294;18.206;2024-02-23T08:09:23;0.45;;;0.45;;
83214;SDS011;73102;46.294;18.206;2024-02-23T08:10:44;0.00;;;0.00;;
83214;SDS011;73102;46.294;18.206;2024-02-23T08:12:04;0.85;;;0.85;;
83214;SDS011;73102;46.294;18.206;2024-02-23T08:13:24;5.57;;;1.48;;